sensor_id;sensor_type;location;lat;lon;timestamp;temperature;humidity
6291;DHT22;3178;48.730;8.990;2022-11-15T00:00:08;8.30;99.90
6291;DHT22;3178;48.730;8.990;2022-11-15T00:02:35;8.30;99.90
6291;DHT22;3178;48.730;8.990;2022-11-15T00:05:00;8.40;99.90
6291;DHT22;3178;48.730;8.990;2022-11-15T00:07:26;8.20;99.90
6291;DHT22;3178;48.730;8.990;2022-11-15T00:09:51;8.20;99.90
6291;DHT22;3178;48.730;8.990;2022-11-15T00:12:17;8.10;99.90
6291;DHT22;3178;48.730;8.990;2022-11-15T00:14:42;8.20;99.90
6291;DHT22;3178;48.730;8.990;2022-11-15T00:17:08;8.20;99.90
6291;DHT22;3178;48.730;8.990;2022-11-15T00:19:33;8.20;99.90
6291;DHT22;3178;48.730;8.990;2022-11-15T00:21:59;8.10;99.90
6291;DHT22;3178;48.730;8.990;2022-11-15T00:24:24;8.10;99.90
6291;DHT22;3178;48.730;8.990;2022-11-15T00:26:50;8.10;99.90
6291;DHT22;3178;48.730;8.990;2022-11-15T00:29:15;8.10;99.90
6291;DHT22;3178;48.730;8.990;2022-11-15T00:31:41;8.00;99.90
6291;DHT22;3178;48.730;8.990;2022-11-15T00:34:06;8.00;99.90
6291;DHT22;3178;48.730;8.990;2022-11-15T00:36:35;7.90;99.90
6291;DHT22;3178;48.730;8.990;2022-11-15T00:39:03;8.00;99.90
6291;DHT22;3178;48.730;8.990;2022-11-15T00:41:28;8.00;99.90
6291;DHT22;3178;48.730;8.990;2022-11-15T00:43:54;8.00;99.90
6291;DHT22;3178;48.730;8.990;2022-11-15T00:46:19;7.90;99.90
6291;DHT22;3178;48.730;8.990;2022-11-15T00:48:45;8.00;99.90
6291;DHT22;3178;48.730;8.990;2022-11-15T00:51:10;7.90;99.90
6291;DHT22;3178;48.730;8.990;2022-11-15T00:53:36;8.00;99.90
6291;DHT22;3178;48.730;8.990;2022-11-15T00:56:01;7.90;99.90
6291;DHT22;3178;48.730;8.990;2022-11-15T00:58:27;8.00;99.90
6291;DHT22;3178;48.730;8.990;2022-11-15T01:00:52;7.90;99.90
6291;DHT22;3178;48.730;8.990;2022-11-15T01:03:18;7.90;99.90
6291;DHT22;3178;48.730;8.990;2022-11-15T01:05:44;7.80;99.90
6291;DHT22;3178;48.730;8.990;2022-11-15T01:08:15;7.70;99.90
6291;DHT22;3178;48.730;8.990;2022-11-15T01:10:41;7.70;99.90
6291;DHT22;3178;48.730;8.990;2022-11-15T01:13:07;7.70;99.90
6291;DHT22;3178;48.730;8.990;2022-11-15T01:15:32;7.50;99.90
6291;DHT22;3178;48.730;8.990;2022-11-15T01:17:58;7.70;99.90
6291;DHT22;3178;48.730;8.990;2022-11-15T01:20:23;7.60;99.90
6291;DHT22;3178;48.730;8.990;2022-11-15T01:22:49;7.60;99.90
6291;DHT22;3178;48.730;8.990;2022-11-15T01:25:14;7.50;99.90
6291;DHT22;3178;48.730;8.990;2022-11-15T01:27:40;7.50;99.90
6291;DHT22;3178;48.730;8.990;2022-11-15T01:30:06;7.50;99.90
6291;DHT22;3178;48.730;8.990;2022-11-15T01:32:32;7.50;99.90
6291;DHT22;3178;48.730;8.990;2022-11-15T01:34:57;7.50;99.90
6291;DHT22;3178;48.730;8.990;2022-11-15T01:37:23;7.50;99.90
6291;DHT22;3178;48.730;8.990;2022-11-15T01:39:48;7.50;99.90
6291;DHT22;3178;48.730;8.990;2022-11-15T01:42:14;7.60;99.90
6291;DHT22;3178;48.730;8.990;2022-11-15T01:44:46;7.50;99.90
6291;DHT22;3178;48.730;8.990;2022-11-15T01:47:22;7.50;99.90
6291;DHT22;3178;48.730;8.990;2022-11-15T01:49:57;7.60;99.90
6291;DHT22;3178;48.730;8.990;2022-11-15T01:52:26;7.60;99.90
6291;DHT22;3178;48.730;8.990;2022-11-15T01:55:03;7.70;99.90
6291;DHT22;3178;48.730;8.990;2022-11-15T01:57:30;7.70;99.90
6291;DHT22;3178;48.730;8.990;2022-11-15T01:59:57;7.80;99.90
6291;DHT22;3178;48.730;8.990;2022-11-15T02:02:23;7.80;99.90
6291;DHT22;3178;48.730;8.990;2022-11-15T02:04:49;7.90;99.90
6291;DHT22;3178;48.730;8.990;2022-11-15T02:07:17;7.90;99.90
6291;DHT22;3178;48.730;8.990;2022-11-15T02:09:43;7.90;99.90
6291;DHT22;3178;48.730;8.990;2022-11-15T02:12:10;7.90;99.90
6291;DHT22;3178;48.730;8.990;2022-11-15T02:14:40;7.90;99.90
6291;DHT22;3178;48.730;8.990;2022-11-15T02:17:25;8.00;99.90
6291;DHT22;3178;48.730;8.990;2022-11-15T02:23:13;8.00;99.90
6291;DHT22;3178;48.730;8.990;2022-11-15T02:28:44;8.00;99.90
6291;DHT22;3178;48.730;8.990;2022-11-15T02:34:35;8.00;99.90
6291;DHT22;3178;48.730;8.990;2022-11-15T02:37:38;8.10;99.90
6291;DHT22;3178;48.730;8.990;2022-11-15T02:40:27;8.10;99.90
6291;DHT22;3178;48.730;8.990;2022-11-15T02:42:58;8.10;99.90
6291;DHT22;3178;48.730;8.990;2022-11-15T02:45:51;8.30;99.90
6291;DHT22;3178;48.730;8.990;2022-11-15T02:48:19;8.10;99.90
6291;DHT22;3178;48.730;8.990;2022-11-15T02:50:47;8.10;99.90
6291;DHT22;3178;48.730;8.990;2022-11-15T02:53:14;8.10;99.90
6291;DHT22;3178;48.730;8.990;2022-11-15T02:55:45;8.00;99.90
6291;DHT22;3178;48.730;8.990;2022-11-15T03:01:18;8.00;99.90
6291;DHT22;3178;48.730;8.990;2022-11-15T03:06:57;8.00;99.90
6291;DHT22;3178;48.730;8.990;2022-11-15T03:09:35;8.00;99.90
6291;DHT22;3178;48.730;8.990;2022-11-15T03:14:57;7.90;99.90
6291;DHT22;3178;48.730;8.990;2022-11-15T03:17:30;7.90;99.90
6291;DHT22;3178;48.730;8.990;2022-11-15T03:19:57;7.80;99.90
6291;DHT22;3178;48.730;8.990;2022-11-15T03:22:27;7.90;99.90
6291;DHT22;3178;48.730;8.990;2022-11-15T03:25:02;7.90;99.90
6291;DHT22;3178;48.730;8.990;2022-11-15T03:27:34;7.90;99.90
6291;DHT22;3178;48.730;8.990;2022-11-15T03:30:05;7.90;99.90
6291;DHT22;3178;48.730;8.990;2022-11-15T03:32:35;7.90;99.90
6291;DHT22;3178;48.730;8.990;2022-11-15T03:35:06;7.90;99.90
6291;DHT22;3178;48.730;8.990;2022-11-15T03:37:40;7.90;99.90
6291;DHT22;3178;48.730;8.990;2022-11-15T03:40:07;7.80;99.90
6291;DHT22;3178;48.730;8.990;2022-11-15T03:45:36;7.80;99.90
6291;DHT22;3178;48.730;8.990;2022-11-15T03:48:02;7.80;99.90
6291;DHT22;3178;48.730;8.990;2022-11-15T03:50:30;7.70;99.90
6291;DHT22;3178;48.730;8.990;2022-11-15T03:52:57;7.70;99.90
6291;DHT22;3178;48.730;8.990;2022-11-15T03:55:23;7.70;99.90
6291;DHT22;3178;48.730;8.990;2022-11-15T03:57:51;7.80;99.90
6291;DHT22;3178;48.730;8.990;2022-11-15T04:00:18;7.70;99.90
6291;DHT22;3178;48.730;8.990;2022-11-15T04:02:44;7.70;99.90
6291;DHT22;3178;48.730;8.990;2022-11-15T04:05:10;7.80;99.90
6291;DHT22;3178;48.730;8.990;2022-11-15T04:07:35;7.60;99.90
6291;DHT22;3178;48.730;8.990;2022-11-15T04:10:01;7.70;99.90
6291;DHT22;3178;48.730;8.990;2022-11-15T04:12:34;7.70;99.90
6291;DHT22;3178;48.730;8.990;2022-11-15T04:20:06;7.70;99.90
6291;DHT22;3178;48.730;8.990;2022-11-15T04:22:54;7.70;99.90
6291;DHT22;3178;48.730;8.990;2022-11-15T04:25:40;7.70;99.90
6291;DHT22;3178;48.730;8.990;2022-11-15T04:28:06;7.60;99.90
6291;DHT22;3178;48.730;8.990;2022-11-15T04:30:31;7.70;99.90
6291;DHT22;3178;48.730;8.990;2022-11-15T04:32:57;7.80;99.90
6291;DHT22;3178;48.730;8.990;2022-11-15T04:35:22;7.80;99.90
6291;DHT22;3178;48.730;8.990;2022-11-15T04:37:48;7.80;99.90
6291;DHT22;3178;48.730;8.990;2022-11-15T04:40:14;7.80;99.90
6291;DHT22;3178;48.730;8.990;2022-11-15T04:42:41;7.90;99.90
6291;DHT22;3178;48.730;8.990;2022-11-15T04:45:10;7.90;99.90
6291;DHT22;3178;48.730;8.990;2022-11-15T04:47:36;8.00;99.90
6291;DHT22;3178;48.730;8.990;2022-11-15T04:50:01;7.90;99.90
6291;DHT22;3178;48.730;8.990;2022-11-15T04:52:27;7.90;99.90
6291;DHT22;3178;48.730;8.990;2022-11-15T04:54:53;7.90;99.90
6291;DHT22;3178;48.730;8.990;2022-11-15T04:57:18;7.90;99.90
6291;DHT22;3178;48.730;8.990;2022-11-15T04:59:44;7.90;99.90
6291;DHT22;3178;48.730;8.990;2022-11-15T05:02:09;7.80;99.90
6291;DHT22;3178;48.730;8.990;2022-11-15T05:04:35;7.80;99.90
6291;DHT22;3178;48.730;8.990;2022-11-15T05:07:00;7.70;99.90
6291;DHT22;3178;48.730;8.990;2022-11-15T05:09:26;7.60;99.90
6291;DHT22;3178;48.730;8.990;2022-11-15T05:11:52;7.60;99.90
6291;DHT22;3178;48.730;8.990;2022-11-15T05:14:17;7.60;99.90
6291;DHT22;3178;48.730;8.990;2022-11-15T05:16:43;7.60;99.90
6291;DHT22;3178;48.730;8.990;2022-11-15T05:19:08;7.50;99.90
6291;DHT22;3178;48.730;8.990;2022-11-15T05:21:34;7.50;99.90
6291;DHT22;3178;48.730;8.990;2022-11-15T05:24:00;7.50;99.90
6291;DHT22;3178;48.730;8.990;2022-11-15T05:26:26;7.50;99.90
6291;DHT22;3178;48.730;8.990;2022-11-15T05:28:56;7.50;99.90
6291;DHT22;3178;48.730;8.990;2022-11-15T05:31:22;7.50;99.90
6291;DHT22;3178;48.730;8.990;2022-11-15T05:33:49;7.50;99.90
6291;DHT22;3178;48.730;8.990;2022-11-15T05:36:29;7.50;99.90
6291;DHT22;3178;48.730;8.990;2022-11-15T05:38:56;7.50;99.90
6291;DHT22;3178;48.730;8.990;2022-11-15T05:44:11;7.50;99.90
6291;DHT22;3178;48.730;8.990;2022-11-15T05:46:40;7.50;99.90
6291;DHT22;3178;48.730;8.990;2022-11-15T05:49:08;7.40;99.90
6291;DHT22;3178;48.730;8.990;2022-11-15T05:51:35;7.40;99.90
6291;DHT22;3178;48.730;8.990;2022-11-15T05:54:01;7.40;99.90
6291;DHT22;3178;48.730;8.990;2022-11-15T05:56:28;7.30;99.90
6291;DHT22;3178;48.730;8.990;2022-11-15T05:58:55;7.40;99.90
6291;DHT22;3178;48.730;8.990;2022-11-15T06:01:22;7.30;99.90
6291;DHT22;3178;48.730;8.990;2022-11-15T06:03:48;7.40;99.90
6291;DHT22;3178;48.730;8.990;2022-11-15T06:06:13;7.20;99.90
6291;DHT22;3178;48.730;8.990;2022-11-15T06:08:39;7.20;99.90
6291;DHT22;3178;48.730;8.990;2022-11-15T06:11:06;7.20;99.90
6291;DHT22;3178;48.730;8.990;2022-11-15T06:13:32;7.10;99.90
6291;DHT22;3178;48.730;8.990;2022-11-15T06:15:58;7.10;99.90
6291;DHT22;3178;48.730;8.990;2022-11-15T06:18:24;7.10;99.90
6291;DHT22;3178;48.730;8.990;2022-11-15T06:20:50;7.00;99.90
6291;DHT22;3178;48.730;8.990;2022-11-15T06:23:15;7.00;99.90
6291;DHT22;3178;48.730;8.990;2022-11-15T06:25:41;7.00;99.90
6291;DHT22;3178;48.730;8.990;2022-11-15T06:28:06;7.00;99.90
6291;DHT22;3178;48.730;8.990;2022-11-15T06:30:32;7.00;99.90
6291;DHT22;3178;48.730;8.990;2022-11-15T06:33:03;7.00;99.90
6291;DHT22;3178;48.730;8.990;2022-11-15T06:35:29;7.00;99.90
6291;DHT22;3178;48.730;8.990;2022-11-15T06:37:54;7.00;99.90
6291;DHT22;3178;48.730;8.990;2022-11-15T06:40:20;7.00;99.90
6291;DHT22;3178;48.730;8.990;2022-11-15T06:42:45;6.90;99.90
6291;DHT22;3178;48.730;8.990;2022-11-15T06:45:11;6.90;99.90
6291;DHT22;3178;48.730;8.990;2022-11-15T06:47:47;6.90;99.90
6291;DHT22;3178;48.730;8.990;2022-11-15T06:50:13;7.00;99.90
6291;DHT22;3178;48.730;8.990;2022-11-15T06:52:38;7.00;99.90
6291;DHT22;3178;48.730;8.990;2022-11-15T06:55:04;7.00;99.90
6291;DHT22;3178;48.730;8.990;2022-11-15T06:57:30;7.10;99.90
6291;DHT22;3178;48.730;8.990;2022-11-15T06:59:55;7.10;99.90
6291;DHT22;3178;48.730;8.990;2022-11-15T07:02:21;7.10;99.90
6291;DHT22;3178;48.730;8.990;2022-11-15T07:04:47;7.10;99.90
6291;DHT22;3178;48.730;8.990;2022-11-15T07:07:12;7.20;99.90
6291;DHT22;3178;48.730;8.990;2022-11-15T07:09:38;7.20;99.90
6291;DHT22;3178;48.730;8.990;2022-11-15T07:12:03;7.30;99.90
6291;DHT22;3178;48.730;8.990;2022-11-15T07:14:29;7.30;99.90
6291;DHT22;3178;48.730;8.990;2022-11-15T07:16:54;7.40;99.90
6291;DHT22;3178;48.730;8.990;2022-11-15T07:19:20;7.40;99.90
6291;DHT22;3178;48.730;8.990;2022-11-15T07:21:45;7.40;99.90
6291;DHT22;3178;48.730;8.990;2022-11-15T07:24:12;7.50;99.90
6291;DHT22;3178;48.730;8.990;2022-11-15T07:26:37;7.50;99.90
6291;DHT22;3178;48.730;8.990;2022-11-15T07:29:03;7.50;99.90
6291;DHT22;3178;48.730;8.990;2022-11-15T07:31:28;7.70;99.90
6291;DHT22;3178;48.730;8.990;2022-11-15T07:33:54;7.80;99.90
6291;DHT22;3178;48.730;8.990;2022-11-15T07:36:19;7.90;99.90
6291;DHT22;3178;48.730;8.990;2022-11-15T07:38:45;8.00;99.90
6291;DHT22;3178;48.730;8.990;2022-11-15T07:41:10;8.10;99.90
6291;DHT22;3178;48.730;8.990;2022-11-15T07:43:36;8.30;99.90
6291;DHT22;3178;48.730;8.990;2022-11-15T07:46:06;8.30;99.90
6291;DHT22;3178;48.730;8.990;2022-11-15T07:48:35;8.50;99.90
6291;DHT22;3178;48.730;8.990;2022-11-15T07:51:00;8.60;99.90
6291;DHT22;3178;48.730;8.990;2022-11-15T07:53:26;8.70;99.90
6291;DHT22;3178;48.730;8.990;2022-11-15T07:55:51;8.80;99.90
6291;DHT22;3178;48.730;8.990;2022-11-15T07:58:19;8.90;99.90
6291;DHT22;3178;48.730;8.990;2022-11-15T08:00:44;9.00;99.90
6291;DHT22;3178;48.730;8.990;2022-11-15T08:03:15;9.00;99.90
6291;DHT22;3178;48.730;8.990;2022-11-15T08:05:41;9.20;99.90
6291;DHT22;3178;48.730;8.990;2022-11-15T08:08:09;9.30;99.90
6291;DHT22;3178;48.730;8.990;2022-11-15T08:10:35;9.40;99.90
6291;DHT22;3178;48.730;8.990;2022-11-15T08:13:06;9.50;99.90
6291;DHT22;3178;48.730;8.990;2022-11-15T08:15:33;9.70;99.90
6291;DHT22;3178;48.730;8.990;2022-11-15T08:18:03;9.80;99.90
6291;DHT22;3178;48.730;8.990;2022-11-15T08:20:29;10.00;99.90
6291;DHT22;3178;48.730;8.990;2022-11-15T08:22:59;10.20;99.90
6291;DHT22;3178;48.730;8.990;2022-11-15T08:25:27;10.30;99.90
6291;DHT22;3178;48.730;8.990;2022-11-15T08:27:54;10.50;99.90
6291;DHT22;3178;48.730;8.990;2022-11-15T08:30:20;10.70;99.90
6291;DHT22;3178;48.730;8.990;2022-11-15T08:32:46;11.00;99.90
6291;DHT22;3178;48.730;8.990;2022-11-15T08:35:12;11.30;99.90
6291;DHT22;3178;48.730;8.990;2022-11-15T08:37:38;11.50;99.90
6291;DHT22;3178;48.730;8.990;2022-11-15T08:40:05;11.80;99.90
6291;DHT22;3178;48.730;8.990;2022-11-15T08:42:30;12.00;99.90
6291;DHT22;3178;48.730;8.990;2022-11-15T08:44:56;12.30;99.90
6291;DHT22;3178;48.730;8.990;2022-11-15T08:47:22;12.40;99.90
6291;DHT22;3178;48.730;8.990;2022-11-15T08:49:47;12.40;99.90
6291;DHT22;3178;48.730;8.990;2022-11-15T08:52:14;12.40;99.90
6291;DHT22;3178;48.730;8.990;2022-11-15T08:54:39;12.50;99.90
6291;DHT22;3178;48.730;8.990;2022-11-15T08:57:05;12.70;99.90
6291;DHT22;3178;48.730;8.990;2022-11-15T08:59:31;12.50;99.90
6291;DHT22;3178;48.730;8.990;2022-11-15T09:01:56;12.60;99.90
6291;DHT22;3178;48.730;8.990;2022-11-15T09:04:22;12.70;99.90
6291;DHT22;3178;48.730;8.990;2022-11-15T09:06:47;12.70;99.90
6291;DHT22;3178;48.730;8.990;2022-11-15T09:09:13;12.90;99.90
6291;DHT22;3178;48.730;8.990;2022-11-15T09:11:38;12.80;99.90
6291;DHT22;3178;48.730;8.990;2022-11-15T09:14:04;12.90;99.90
6291;DHT22;3178;48.730;8.990;2022-11-15T09:16:30;12.80;99.90
6291;DHT22;3178;48.730;8.990;2022-11-15T09:18:56;12.80;99.90
6291;DHT22;3178;48.730;8.990;2022-11-15T09:21:22;12.70;99.90
6291;DHT22;3178;48.730;8.990;2022-11-15T09:23:50;12.70;99.90
6291;DHT22;3178;48.730;8.990;2022-11-15T09:26:17;12.60;99.90
6291;DHT22;3178;48.730;8.990;2022-11-15T09:28:43;12.60;99.90
6291;DHT22;3178;48.730;8.990;2022-11-15T09:31:09;12.50;99.90
6291;DHT22;3178;48.730;8.990;2022-11-15T09:33:35;12.60;99.90
6291;DHT22;3178;48.730;8.990;2022-11-15T09:36:03;12.70;99.90
6291;DHT22;3178;48.730;8.990;2022-11-15T09:38:30;12.80;99.90
6291;DHT22;3178;48.730;8.990;2022-11-15T09:41:29;12.90;99.90
6291;DHT22;3178;48.730;8.990;2022-11-15T09:49:37;13.20;99.90
6291;DHT22;3178;48.730;8.990;2022-11-15T09:52:03;13.20;99.90
6291;DHT22;3178;48.730;8.990;2022-11-15T09:54:30;13.20;99.90
6291;DHT22;3178;48.730;8.990;2022-11-15T09:57:12;13.00;99.90
6291;DHT22;3178;48.730;8.990;2022-11-15T10:00:02;13.10;99.90
6291;DHT22;3178;48.730;8.990;2022-11-15T10:05:18;13.00;99.90
6291;DHT22;3178;48.730;8.990;2022-11-15T10:08:12;13.00;99.90
6291;DHT22;3178;48.730;8.990;2022-11-15T10:10:42;13.00;99.90
6291;DHT22;3178;48.730;8.990;2022-11-15T10:13:19;12.90;99.90
6291;DHT22;3178;48.730;8.990;2022-11-15T10:15:47;12.90;99.90
6291;DHT22;3178;48.730;8.990;2022-11-15T10:18:30;13.00;99.90
6291;DHT22;3178;48.730;8.990;2022-11-15T10:21:23;13.00;99.90
6291;DHT22;3178;48.730;8.990;2022-11-15T10:23:50;12.90;99.90
6291;DHT22;3178;48.730;8.990;2022-11-15T10:26:17;12.90;99.90
6291;DHT22;3178;48.730;8.990;2022-11-15T10:28:42;13.00;99.90
6291;DHT22;3178;48.730;8.990;2022-11-15T10:31:23;12.90;99.90
6291;DHT22;3178;48.730;8.990;2022-11-15T10:33:49;12.90;99.90
6291;DHT22;3178;48.730;8.990;2022-11-15T10:36:20;12.80;99.90
6291;DHT22;3178;48.730;8.990;2022-11-15T10:41:19;12.90;99.90
6291;DHT22;3178;48.730;8.990;2022-11-15T10:44:00;12.90;99.90
6291;DHT22;3178;48.730;8.990;2022-11-15T10:46:26;12.80;99.90
6291;DHT22;3178;48.730;8.990;2022-11-15T10:48:52;13.00;99.90
6291;DHT22;3178;48.730;8.990;2022-11-15T10:51:22;12.90;99.90
6291;DHT22;3178;48.730;8.990;2022-11-15T10:53:54;12.80;99.90
6291;DHT22;3178;48.730;8.990;2022-11-15T10:56:21;13.00;99.90
6291;DHT22;3178;48.730;8.990;2022-11-15T10:58:56;12.80;99.90
6291;DHT22;3178;48.730;8.990;2022-11-15T11:01:24;12.80;99.90
6291;DHT22;3178;48.730;8.990;2022-11-15T11:04:07;12.80;99.90
6291;DHT22;3178;48.730;8.990;2022-11-15T11:06:59;12.70;99.90
6291;DHT22;3178;48.730;8.990;2022-11-15T11:09:33;12.70;99.90
6291;DHT22;3178;48.730;8.990;2022-11-15T11:12:00;12.70;99.90
6291;DHT22;3178;48.730;8.990;2022-11-15T11:14:28;12.80;99.90
6291;DHT22;3178;48.730;8.990;2022-11-15T11:22:57;12.60;99.90
6291;DHT22;3178;48.730;8.990;2022-11-15T11:25:35;12.60;99.90
6291;DHT22;3178;48.730;8.990;2022-11-15T11:31:17;12.70;99.90
6291;DHT22;3178;48.730;8.990;2022-11-15T11:33:56;12.80;99.90
6291;DHT22;3178;48.730;8.990;2022-11-15T11:36:32;12.80;99.90
6291;DHT22;3178;48.730;8.990;2022-11-15T11:41:53;12.80;99.90
6291;DHT22;3178;48.730;8.990;2022-11-15T11:44:38;12.90;99.90
6291;DHT22;3178;48.730;8.990;2022-11-15T11:47:40;12.90;99.90
6291;DHT22;3178;48.730;8.990;2022-11-15T11:50:21;13.00;99.90
6291;DHT22;3178;48.730;8.990;2022-11-15T11:52:58;13.10;99.90
6291;DHT22;3178;48.730;8.990;2022-11-15T12:00:49;13.30;99.90
6291;DHT22;3178;48.730;8.990;2022-11-15T12:03:39;13.30;99.90
6291;DHT22;3178;48.730;8.990;2022-11-15T12:09:04;13.40;99.90
6291;DHT22;3178;48.730;8.990;2022-11-15T12:11:52;13.40;99.90
6291;DHT22;3178;48.730;8.990;2022-11-15T12:14:48;13.40;99.90
6291;DHT22;3178;48.730;8.990;2022-11-15T12:17:19;13.40;99.90
6291;DHT22;3178;48.730;8.990;2022-11-15T12:19:46;13.50;99.90
6291;DHT22;3178;48.730;8.990;2022-11-15T12:22:38;13.40;99.90
6291;DHT22;3178;48.730;8.990;2022-11-15T12:25:31;13.30;99.90
6291;DHT22;3178;48.730;8.990;2022-11-15T12:28:16;13.30;99.90
6291;DHT22;3178;48.730;8.990;2022-11-15T12:30:51;13.30;99.90
6291;DHT22;3178;48.730;8.990;2022-11-15T12:38:59;13.20;99.90
6291;DHT22;3178;48.730;8.990;2022-11-15T12:41:27;13.20;99.90
6291;DHT22;3178;48.730;8.990;2022-11-15T12:43:54;13.20;99.90
6291;DHT22;3178;48.730;8.990;2022-11-15T12:52:06;13.10;99.90
6291;DHT22;3178;48.730;8.990;2022-11-15T12:59:49;13.20;99.90
6291;DHT22;3178;48.730;8.990;2022-11-15T13:02:38;13.10;99.90
6291;DHT22;3178;48.730;8.990;2022-11-15T13:17:43;13.10;99.90
6291;DHT22;3178;48.730;8.990;2022-11-15T13:22:43;13.30;99.90
6291;DHT22;3178;48.730;8.990;2022-11-15T13:28:18;13.10;99.90
6291;DHT22;3178;48.730;8.990;2022-11-15T13:30:56;13.30;99.90
6291;DHT22;3178;48.730;8.990;2022-11-15T13:33:34;13.10;99.90
6291;DHT22;3178;48.730;8.990;2022-11-15T13:36:13;13.20;99.90
6291;DHT22;3178;48.730;8.990;2022-11-15T13:38:40;13.30;99.90
6291;DHT22;3178;48.730;8.990;2022-11-15T13:41:20;13.10;99.90
6291;DHT22;3178;48.730;8.990;2022-11-15T13:43:48;13.00;99.90
6291;DHT22;3178;48.730;8.990;2022-11-15T13:46:26;13.10;99.90
6291;DHT22;3178;48.730;8.990;2022-11-15T13:49:04;13.10;99.90
6291;DHT22;3178;48.730;8.990;2022-11-15T13:51:32;13.00;99.90
6291;DHT22;3178;48.730;8.990;2022-11-15T13:54:03;13.00;99.90
6291;DHT22;3178;48.730;8.990;2022-11-15T13:56:31;13.00;99.90
6291;DHT22;3178;48.730;8.990;2022-11-15T13:58:57;12.90;99.90
6291;DHT22;3178;48.730;8.990;2022-11-15T14:01:23;12.90;99.90
6291;DHT22;3178;48.730;8.990;2022-11-15T14:03:56;12.80;99.90
6291;DHT22;3178;48.730;8.990;2022-11-15T14:06:24;12.90;99.90
6291;DHT22;3178;48.730;8.990;2022-11-15T14:11:34;13.00;99.90
6291;DHT22;3178;48.730;8.990;2022-11-15T14:16:40;12.80;99.90
6291;DHT22;3178;48.730;8.990;2022-11-15T14:19:09;12.80;99.90
6291;DHT22;3178;48.730;8.990;2022-11-15T14:21:35;12.80;99.90
6291;DHT22;3178;48.730;8.990;2022-11-15T14:24:20;12.80;99.90
6291;DHT22;3178;48.730;8.990;2022-11-15T14:26:46;12.80;99.90
6291;DHT22;3178;48.730;8.990;2022-11-15T14:29:25;12.80;99.90
6291;DHT22;3178;48.730;8.990;2022-11-15T14:31:51;12.90;99.90
6291;DHT22;3178;48.730;8.990;2022-11-15T14:34:17;12.80;99.90
6291;DHT22;3178;48.730;8.990;2022-11-15T14:36:43;12.80;99.90
6291;DHT22;3178;48.730;8.990;2022-11-15T14:39:08;12.90;99.90
6291;DHT22;3178;48.730;8.990;2022-11-15T14:41:35;12.80;99.90
6291;DHT22;3178;48.730;8.990;2022-11-15T14:44:05;12.90;99.90
6291;DHT22;3178;48.730;8.990;2022-11-15T14:46:31;12.80;99.90
6291;DHT22;3178;48.730;8.990;2022-11-15T14:48:56;12.80;99.90
6291;DHT22;3178;48.730;8.990;2022-11-15T14:51:25;12.80;99.90
6291;DHT22;3178;48.730;8.990;2022-11-15T14:53:51;12.80;99.90
6291;DHT22;3178;48.730;8.990;2022-11-15T14:56:17;12.80;99.90
6291;DHT22;3178;48.730;8.990;2022-11-15T14:58:42;12.70;99.90
6291;DHT22;3178;48.730;8.990;2022-11-15T15:01:20;12.70;99.90
6291;DHT22;3178;48.730;8.990;2022-11-15T15:03:46;12.60;99.90
6291;DHT22;3178;48.730;8.990;2022-11-15T15:06:12;12.60;99.90
6291;DHT22;3178;48.730;8.990;2022-11-15T15:08:39;12.60;99.90
6291;DHT22;3178;48.730;8.990;2022-11-15T15:11:23;12.60;99.90
6291;DHT22;3178;48.730;8.990;2022-11-15T15:13:49;12.60;99.90
6291;DHT22;3178;48.730;8.990;2022-11-15T15:16:15;12.60;99.90
6291;DHT22;3178;48.730;8.990;2022-11-15T15:18:41;12.50;99.90
6291;DHT22;3178;48.730;8.990;2022-11-15T15:21:24;12.50;99.90
6291;DHT22;3178;48.730;8.990;2022-11-15T15:23:51;12.50;99.90
6291;DHT22;3178;48.730;8.990;2022-11-15T15:26:17;12.50;99.90
6291;DHT22;3178;48.730;8.990;2022-11-15T15:28:42;12.40;99.90
6291;DHT22;3178;48.730;8.990;2022-11-15T15:31:09;12.40;99.90
6291;DHT22;3178;48.730;8.990;2022-11-15T15:33:35;12.40;99.90
6291;DHT22;3178;48.730;8.990;2022-11-15T15:36:01;12.50;99.90
6291;DHT22;3178;48.730;8.990;2022-11-15T15:38:27;12.40;99.90
6291;DHT22;3178;48.730;8.990;2022-11-15T15:40:53;12.30;99.90
6291;DHT22;3178;48.730;8.990;2022-11-15T15:43:18;12.40;99.90
6291;DHT22;3178;48.730;8.990;2022-11-15T15:45:44;12.30;99.90
6291;DHT22;3178;48.730;8.990;2022-11-15T15:48:15;12.30;99.90
6291;DHT22;3178;48.730;8.990;2022-11-15T15:50:41;12.30;99.90
6291;DHT22;3178;48.730;8.990;2022-11-15T15:53:10;12.30;99.90
6291;DHT22;3178;48.730;8.990;2022-11-15T15:55:37;12.30;99.90
6291;DHT22;3178;48.730;8.990;2022-11-15T15:58:04;12.20;99.90
6291;DHT22;3178;48.730;8.990;2022-11-15T16:00:30;12.20;99.90
6291;DHT22;3178;48.730;8.990;2022-11-15T16:02:58;12.20;99.90
6291;DHT22;3178;48.730;8.990;2022-11-15T16:05:24;12.20;99.90
6291;DHT22;3178;48.730;8.990;2022-11-15T16:07:50;12.20;99.90
6291;DHT22;3178;48.730;8.990;2022-11-15T16:10:27;12.20;99.90
6291;DHT22;3178;48.730;8.990;2022-11-15T16:12:54;12.20;99.90
6291;DHT22;3178;48.730;8.990;2022-11-15T16:15:21;12.10;99.90
6291;DHT22;3178;48.730;8.990;2022-11-15T16:17:50;12.20;99.90
6291;DHT22;3178;48.730;8.990;2022-11-15T16:20:47;12.30;99.90
6291;DHT22;3178;48.730;8.990;2022-11-15T16:23:16;12.10;99.90
6291;DHT22;3178;48.730;8.990;2022-11-15T16:25:51;12.10;99.90
6291;DHT22;3178;48.730;8.990;2022-11-15T16:28:26;12.10;99.90
6291;DHT22;3178;48.730;8.990;2022-11-15T16:31:09;12.00;99.90
6291;DHT22;3178;48.730;8.990;2022-11-15T16:33:34;12.00;99.90
6291;DHT22;3178;48.730;8.990;2022-11-15T16:36:00;12.20;99.90
6291;DHT22;3178;48.730;8.990;2022-11-15T16:38:26;12.00;99.90
6291;DHT22;3178;48.730;8.990;2022-11-15T16:40:52;12.00;99.90
6291;DHT22;3178;48.730;8.990;2022-11-15T16:43:17;12.00;99.90
6291;DHT22;3178;48.730;8.990;2022-11-15T16:45:43;12.10;99.90
6291;DHT22;3178;48.730;8.990;2022-11-15T16:48:22;12.10;99.90
6291;DHT22;3178;48.730;8.990;2022-11-15T16:50:48;11.90;99.90
6291;DHT22;3178;48.730;8.990;2022-11-15T16:53:13;11.90;99.90
6291;DHT22;3178;48.730;8.990;2022-11-15T16:55:39;11.90;99.90
6291;DHT22;3178;48.730;8.990;2022-11-15T16:58:04;11.90;99.90
6291;DHT22;3178;48.730;8.990;2022-11-15T17:00:30;11.80;99.90
6291;DHT22;3178;48.730;8.990;2022-11-15T17:02:56;11.90;99.90
6291;DHT22;3178;48.730;8.990;2022-11-15T17:05:23;12.00;99.90
6291;DHT22;3178;48.730;8.990;2022-11-15T17:07:50;11.90;99.90
6291;DHT22;3178;48.730;8.990;2022-11-15T17:10:22;11.70;99.90
6291;DHT22;3178;48.730;8.990;2022-11-15T17:12:48;11.90;99.90
6291;DHT22;3178;48.730;8.990;2022-11-15T17:15:14;11.80;99.90
6291;DHT22;3178;48.730;8.990;2022-11-15T17:17:41;11.80;99.90
6291;DHT22;3178;48.730;8.990;2022-11-15T17:20:13;11.80;99.90
6291;DHT22;3178;48.730;8.990;2022-11-15T17:22:39;11.80;99.90
6291;DHT22;3178;48.730;8.990;2022-11-15T17:25:05;11.80;99.90
6291;DHT22;3178;48.730;8.990;2022-11-15T17:27:31;11.80;99.90
6291;DHT22;3178;48.730;8.990;2022-11-15T17:29:57;11.70;99.90
6291;DHT22;3178;48.730;8.990;2022-11-15T17:32:22;11.70;99.90
6291;DHT22;3178;48.730;8.990;2022-11-15T17:34:48;11.70;99.90
6291;DHT22;3178;48.730;8.990;2022-11-15T17:37:13;11.70;99.90
6291;DHT22;3178;48.730;8.990;2022-11-15T17:39:39;11.70;99.90
6291;DHT22;3178;48.730;8.990;2022-11-15T17:42:05;11.70;99.90
6291;DHT22;3178;48.730;8.990;2022-11-15T17:44:31;11.70;99.90
6291;DHT22;3178;48.730;8.990;2022-11-15T17:46:57;11.90;99.90
6291;DHT22;3178;48.730;8.990;2022-11-15T17:49:22;11.70;99.90
6291;DHT22;3178;48.730;8.990;2022-11-15T17:51:48;11.70;99.90
6291;DHT22;3178;48.730;8.990;2022-11-15T17:54:13;11.70;99.90
6291;DHT22;3178;48.730;8.990;2022-11-15T17:56:40;11.70;99.90
6291;DHT22;3178;48.730;8.990;2022-11-15T17:59:05;11.70;99.90
6291;DHT22;3178;48.730;8.990;2022-11-15T18:01:33;11.80;99.90